sensor_id;sensor_type;location;lat;lon;timestamp;P1;durP1;ratioP1;P2;durP2;ratioP2
40955;SDS011;26687;48.254;11.454;2023-12-20T00:02:29;1.88;;;1.50;;
40955;SDS011;26687;48.254;11.454;2023-12-20T00:05:29;1.67;;;1.58;;
40955;SDS011;26687;48.254;11.454;2023-12-20T00:08:29;2.47;;;1.40;;
40955;SDS011;26687;48.254;11.454;2023-12-20T00:11:29;2.08;;;1.70;;
40955;SDS011;26687;48.254;11.454;2023-12-20T00:14:30;2.10;;;1.90;;
40955;SDS011;26687;48.254;11.454;2023-12-20T00:17:30;2.30;;;1.80;;
40955;SDS011;26687;48.254;11.454;2023-12-20T00:20:30;2.20;;;1.80;;
40955;SDS011;26687;48.254;11.454;2023-12-20T00:23:30;2.38;;;2.05;;
40955;SDS011;26687;48.254;11.454;2023-12-20T00:26:30;1.70;;;1.53;;
40955;SDS011;26687;48.254;11.454;2023-12-20T00:29:30;1.70;;;1.60;;
40955;SDS011;26687;48.254;11.454;2023-12-20T00:32:31;1.90;;;1.57;;
40955;SDS011;26687;48.254;11.454;2023-12-20T00:35:31;1.60;;;1.50;;
40955;SDS011;26687;48.254;11.454;2023-12-20T00:38:31;4.50;;;1.50;;
40955;SDS011;26687;48.254;11.454;2023-12-20T00:41:31;1.48;;;1.33;;
40955;SDS011;26687;48.254;11.454;2023-12-20T00:44:31;2.05;;;1.88;;
40955;SDS011;26687;48.254;11.454;2023-12-20T00:47:31;2.60;;;1.38;;
40955;SDS011;26687;48.254;11.454;2023-12-20T00:50:31;1.52;;;1.42;;
40955;SDS011;26687;48.254;11.454;2023-12-20T00:53:32;1.48;;;1.38;;
40955;SDS011;26687;48.254;11.454;2023-12-20T00:56:32;1.77;;;1.58;;
40955;SDS011;26687;48.254;11.454;2023-12-20T00:59:32;2.42;;;1.70;;
40955;SDS011;26687;48.254;11.454;2023-12-20T01:02:32;1.63;;;1.52;;
40955;SDS011;26687;48.254;11.454;2023-12-20T01:05:33;1.92;;;1.60;;
40955;SDS011;26687;48.254;11.454;2023-12-20T01:08:33;1.67;;;1.58;;
40955;SDS011;26687;48.254;11.454;2023-12-20T01:11:35;1.50;;;1.40;;
40955;SDS011;26687;48.254;11.454;2023-12-20T01:14:35;1.98;;;1.60;;
40955;SDS011;26687;48.254;11.454;2023-12-20T01:17:35;2.30;;;1.90;;
40955;SDS011;26687;48.254;11.454;2023-12-20T01:20:35;1.92;;;1.73;;
40955;SDS011;26687;48.254;11.454;2023-12-20T01:23:36;2.28;;;1.52;;
40955;SDS011;26687;48.254;11.454;2023-12-20T01:26:36;1.60;;;1.50;;
40955;SDS011;26687;48.254;11.454;2023-12-20T01:29:36;1.60;;;1.48;;
40955;SDS011;26687;48.254;11.454;2023-12-20T01:32:36;1.42;;;1.23;;
40955;SDS011;26687;48.254;11.454;2023-12-20T01:35:36;1.65;;;1.23;;
40955;SDS011;26687;48.254;11.454;2023-12-20T01:38:37;1.77;;;1.40;;
40955;SDS011;26687;48.254;11.454;2023-12-20T01:41:37;1.20;;;1.10;;
40955;SDS011;26687;48.254;11.454;2023-12-20T01:44:37;1.10;;;1.00;;
40955;SDS011;26687;48.254;11.454;2023-12-20T01:47:37;1.45;;;1.20;;
40955;SDS011;26687;48.254;11.454;2023-12-20T01:50:38;2.00;;;1.20;;
40955;SDS011;26687;48.254;11.454;2023-12-20T01:53:38;1.20;;;1.10;;
40955;SDS011;26687;48.254;11.454;2023-12-20T01:56:40;1.20;;;1.10;;
40955;SDS011;26687;48.254;11.454;2023-12-20T01:59:40;1.45;;;1.10;;
40955;SDS011;26687;48.254;11.454;2023-12-20T02:02:40;1.30;;;0.90;;
40955;SDS011;26687;48.254;11.454;2023-12-20T02:05:41;1.20;;;1.07;;
40955;SDS011;26687;48.254;11.454;2023-12-20T02:08:41;1.52;;;0.90;;
40955;SDS011;26687;48.254;11.454;2023-12-20T02:11:41;1.02;;;0.77;;
40955;SDS011;26687;48.254;11.454;2023-12-20T02:14:41;1.20;;;1.10;;
40955;SDS011;26687;48.254;11.454;2023-12-20T02:17:41;1.30;;;1.10;;
40955;SDS011;26687;48.254;11.454;2023-12-20T02:20:43;1.05;;;0.98;;
40955;SDS011;26687;48.254;11.454;2023-12-20T02:23:43;1.03;;;0.93;;
40955;SDS011;26687;48.254;11.454;2023-12-20T02:26:43;1.00;;;0.90;;
40955;SDS011;26687;48.254;11.454;2023-12-20T02:29:43;1.50;;;1.17;;
40955;SDS011;26687;48.254;11.454;2023-12-20T02:32:43;1.00;;;0.90;;
40955;SDS011;26687;48.254;11.454;2023-12-20T02:35:43;0.90;;;0.75;;
40955;SDS011;26687;48.254;11.454;2023-12-20T02:38:44;1.33;;;1.00;;
40955;SDS011;26687;48.254;11.454;2023-12-20T02:41:44;0.70;;;0.70;;
40955;SDS011;26687;48.254;11.454;2023-12-20T02:44:44;1.10;;;0.98;;
40955;SDS011;26687;48.254;11.454;2023-12-20T02:47:44;0.68;;;0.60;;
40955;SDS011;26687;48.254;11.454;2023-12-20T02:50:45;0.80;;;0.77;;
40955;SDS011;26687;48.254;11.454;2023-12-20T02:53:46;0.63;;;0.60;;
40955;SDS011;26687;48.254;11.454;2023-12-20T02:56:46;0.73;;;0.70;;
40955;SDS011;26687;48.254;11.454;2023-12-20T02:59:47;0.77;;;0.60;;
40955;SDS011;26687;48.254;11.454;2023-12-20T03:02:47;0.63;;;0.63;;
40955;SDS011;26687;48.254;11.454;2023-12-20T03:05:47;0.85;;;0.60;;
40955;SDS011;26687;48.254;11.454;2023-12-20T03:08:47;0.88;;;0.60;;
40955;SDS011;26687;48.254;11.454;2023-12-20T03:11:47;0.60;;;0.60;;
40955;SDS011;26687;48.254;11.454;2023-12-20T03:14:48;0.90;;;0.60;;
40955;SDS011;26687;48.254;11.454;2023-12-20T03:17:48;0.60;;;0.50;;
40955;SDS011;26687;48.254;11.454;2023-12-20T03:20:48;0.90;;;0.43;;
40955;SDS011;26687;48.254;11.454;2023-12-20T03:23:50;0.60;;;0.52;;
40955;SDS011;26687;48.254;11.454;2023-12-20T03:26:50;0.50;;;0.40;;
40955;SDS011;26687;48.254;11.454;2023-12-20T03:29:51;0.60;;;0.60;;
40955;SDS011;26687;48.254;11.454;2023-12-20T03:32:51;0.50;;;0.50;;
40955;SDS011;26687;48.254;11.454;2023-12-20T03:35:51;0.70;;;0.40;;
40955;SDS011;26687;48.254;11.454;2023-12-20T03:38:51;1.20;;;0.60;;
40955;SDS011;26687;48.254;11.454;2023-12-20T03:41:51;0.85;;;0.55;;
40955;SDS011;26687;48.254;11.454;2023-12-20T03:44:51;3.55;;;0.70;;
40955;SDS011;26687;48.254;11.454;2023-12-20T03:47:52;0.60;;;0.60;;
40955;SDS011;26687;48.254;11.454;2023-12-20T03:50:56;0.85;;;0.70;;
40955;SDS011;26687;48.254;11.454;2023-12-20T03:53:56;0.80;;;0.80;;
40955;SDS011;26687;48.254;11.454;2023-12-20T03:56:56;0.65;;;0.65;;
40955;SDS011;26687;48.254;11.454;2023-12-20T03:59:57;1.00;;;0.90;;
40955;SDS011;26687;48.254;11.454;2023-12-20T04:02:57;0.77;;;0.77;;
40955;SDS011;26687;48.254;11.454;2023-12-20T04:05:57;0.80;;;0.80;;
40955;SDS011;26687;48.254;11.454;2023-12-20T04:08:57;0.80;;;0.80;;
40955;SDS011;26687;48.254;11.454;2023-12-20T04:11:58;1.77;;;0.75;;
40955;SDS011;26687;48.254;11.454;2023-12-20T04:14:58;0.80;;;0.73;;
40955;SDS011;26687;48.254;11.454;2023-12-20T04:17:58;0.88;;;0.80;;
40955;SDS011;26687;48.254;11.454;2023-12-20T04:20:58;1.05;;;0.85;;
40955;SDS011;26687;48.254;11.454;2023-12-20T04:23:58;1.20;;;1.00;;
40955;SDS011;26687;48.254;11.454;2023-12-20T04:26:58;1.20;;;0.95;;
40955;SDS011;26687;48.254;11.454;2023-12-20T04:29:59;0.90;;;0.90;;
40955;SDS011;26687;48.254;11.454;2023-12-20T04:32:59;1.25;;;0.88;;
40955;SDS011;26687;48.254;11.454;2023-12-20T04:35:59;0.88;;;0.88;;
40955;SDS011;26687;48.254;11.454;2023-12-20T04:39:00;0.88;;;0.88;;
40955;SDS011;26687;48.254;11.454;2023-12-20T04:42:00;1.65;;;1.15;;
40955;SDS011;26687;48.254;11.454;2023-12-20T04:45:00;1.10;;;1.00;;
40955;SDS011;26687;48.254;11.454;2023-12-20T04:48:01;1.02;;;1.00;;
40955;SDS011;26687;48.254;11.454;2023-12-20T04:51:01;1.40;;;1.23;;
40955;SDS011;26687;48.254;11.454;2023-12-20T04:54:02;1.40;;;1.30;;
40955;SDS011;26687;48.254;11.454;2023-12-20T04:57:02;1.10;;;1.00;;
40955;SDS011;26687;48.254;11.454;2023-12-20T05:00:02;1.57;;;1.40;;
40955;SDS011;26687;48.254;11.454;2023-12-20T05:03:03;1.15;;;1.05;;
40955;SDS011;26687;48.254;11.454;2023-12-20T05:06:03;1.48;;;1.38;;
40955;SDS011;26687;48.254;11.454;2023-12-20T05:09:03;1.40;;;1.30;;
40955;SDS011;26687;48.254;11.454;2023-12-20T05:12:04;1.30;;;1.20;;
40955;SDS011;26687;48.254;11.454;2023-12-20T05:15:05;1.75;;;1.20;;
40955;SDS011;26687;48.254;11.454;2023-12-20T05:18:05;1.52;;;1.42;;
40955;SDS011;26687;48.254;11.454;2023-12-20T05:21:07;2.42;;;1.40;;
40955;SDS011;26687;48.254;11.454;2023-12-20T05:24:07;2.13;;;1.40;;
40955;SDS011;26687;48.254;11.454;2023-12-20T05:27:07;1.67;;;1.52;;
40955;SDS011;26687;48.254;11.454;2023-12-20T05:30:07;1.70;;;1.60;;
40955;SDS011;26687;48.254;11.454;2023-12-20T05:33:07;1.77;;;1.67;;
40955;SDS011;26687;48.254;11.454;2023-12-20T05:36:08;1.75;;;1.65;;
40955;SDS011;26687;48.254;11.454;2023-12-20T05:39:11;2.05;;;1.83;;
40955;SDS011;26687;48.254;11.454;2023-12-20T05:42:11;2.00;;;1.80;;
40955;SDS011;26687;48.254;11.454;2023-12-20T05:45:11;1.80;;;1.70;;
40955;SDS011;26687;48.254;11.454;2023-12-20T05:48:12;2.30;;;2.10;;
40955;SDS011;26687;48.254;11.454;2023-12-20T05:51:12;2.28;;;2.08;;
40955;SDS011;26687;48.254;11.454;2023-12-20T05:54:13;2.25;;;2.05;;
40955;SDS011;26687;48.254;11.454;2023-12-20T05:57:13;2.08;;;1.98;;
40955;SDS011;26687;48.254;11.454;2023-12-20T06:00:13;2.10;;;1.90;;
40955;SDS011;26687;48.254;11.454;2023-12-20T06:03:14;2.85;;;1.90;;
40955;SDS011;26687;48.254;11.454;2023-12-20T06:06:14;1.90;;;1.80;;
40955;SDS011;26687;48.254;11.454;2023-12-20T06:09:14;2.45;;;1.60;;
40955;SDS011;26687;48.254;11.454;2023-12-20T06:12:15;1.88;;;1.67;;
40955;SDS011;26687;48.254;11.454;2023-12-20T06:15:15;1.85;;;1.75;;
40955;SDS011;26687;48.254;11.454;2023-12-20T06:18:15;1.83;;;1.63;;
40955;SDS011;26687;48.254;11.454;2023-12-20T06:21:15;1.80;;;1.55;;
40955;SDS011;26687;48.254;11.454;2023-12-20T06:24:15;1.65;;;1.55;;
40955;SDS011;26687;48.254;11.454;2023-12-20T06:27:16;1.52;;;1.42;;
40955;SDS011;26687;48.254;11.454;2023-12-20T06:30:16;2.08;;;1.83;;
40955;SDS011;26687;48.254;11.454;2023-12-20T06:33:16;2.20;;;1.67;;
40955;SDS011;26687;48.254;11.454;2023-12-20T06:36:18;1.60;;;1.50;;
40955;SDS011;26687;48.254;11.454;2023-12-20T06:39:18;1.88;;;1.70;;
40955;SDS011;26687;48.254;11.454;2023-12-20T06:42:18;1.92;;;1.83;;
40955;SDS011;26687;48.254;11.454;2023-12-20T06:45:19;1.73;;;1.63;;
40955;SDS011;26687;48.254;11.454;2023-12-20T06:48:19;1.83;;;1.73;;
40955;SDS011;26687;48.254;11.454;2023-12-20T06:51:20;1.95;;;1.77;;
40955;SDS011;26687;48.254;11.454;2023-12-20T06:54:21;2.20;;;2.00;;
40955;SDS011;26687;48.254;11.454;2023-12-20T06:57:21;2.50;;;1.97;;
40955;SDS011;26687;48.254;11.454;2023-12-20T07:00:21;2.05;;;1.85;;
40955;SDS011;26687;48.254;11.454;2023-12-20T07:03:21;1.83;;;1.63;;
40955;SDS011;26687;48.254;11.454;2023-12-20T07:06:21;1.85;;;1.60;;
40955;SDS011;26687;48.254;11.454;2023-12-20T07:09:21;1.85;;;1.73;;
40955;SDS011;26687;48.254;11.454;2023-12-20T07:12:22;1.83;;;1.70;;
40955;SDS011;26687;48.254;11.454;2023-12-20T07:15:22;1.80;;;1.70;;
40955;SDS011;26687;48.254;11.454;2023-12-20T07:18:22;1.50;;;1.40;;
40955;SDS011;26687;48.254;11.454;2023-12-20T07:21:22;1.45;;;1.35;;
40955;SDS011;26687;48.254;11.454;2023-12-20T07:24:22;1.60;;;1.50;;
40955;SDS011;26687;48.254;11.454;2023-12-20T07:27:22;1.75;;;1.65;;
40955;SDS011;26687;48.254;11.454;2023-12-20T07:30:23;1.20;;;1.10;;
40955;SDS011;26687;48.254;11.454;2023-12-20T07:33:23;1.40;;;1.30;;
40955;SDS011;26687;48.254;11.454;2023-12-20T07:36:23;1.33;;;1.23;;
40955;SDS011;26687;48.254;11.454;2023-12-20T07:39:23;1.30;;;1.20;;
40955;SDS011;26687;48.254;11.454;2023-12-20T07:42:23;1.50;;;1.37;;
40955;SDS011;26687;48.254;11.454;2023-12-20T07:45:24;1.40;;;1.30;;
40955;SDS011;26687;48.254;11.454;2023-12-20T07:48:24;1.20;;;1.10;;
40955;SDS011;26687;48.254;11.454;2023-12-20T07:51:24;1.30;;;1.20;;
40955;SDS011;26687;48.254;11.454;2023-12-20T07:54:24;1.10;;;1.00;;
40955;SDS011;26687;48.254;11.454;2023-12-20T07:57:24;1.17;;;1.00;;
40955;SDS011;26687;48.254;11.454;2023-12-20T08:00:25;0.80;;;0.80;;
40955;SDS011;26687;48.254;11.454;2023-12-20T08:03:25;0.70;;;0.70;;
40955;SDS011;26687;48.254;11.454;2023-12-20T08:06:25;0.65;;;0.65;;
40955;SDS011;26687;48.254;11.454;2023-12-20T08:09:25;1.38;;;0.88;;
40955;SDS011;26687;48.254;11.454;2023-12-20T08:12:25;1.00;;;0.60;;
40955;SDS011;26687;48.254;11.454;2023-12-20T08:15:27;0.80;;;0.80;;
40955;SDS011;26687;48.254;11.454;2023-12-20T08:18:27;0.80;;;0.50;;
40955;SDS011;26687;48.254;11.454;2023-12-20T08:21:27;0.90;;;0.70;;
40955;SDS011;26687;48.254;11.454;2023-12-20T08:24:28;0.60;;;0.60;;
40955;SDS011;26687;48.254;11.454;2023-12-20T08:27:29;0.68;;;0.68;;
40955;SDS011;26687;48.254;11.454;2023-12-20T08:30:31;1.00;;;0.90;;
40955;SDS011;26687;48.254;11.454;2023-12-20T08:33:32;0.75;;;0.70;;
40955;SDS011;26687;48.254;11.454;2023-12-20T08:36:32;0.50;;;0.50;;
40955;SDS011;26687;48.254;11.454;2023-12-20T08:39:33;0.95;;;0.95;;
40955;SDS011;26687;48.254;11.454;2023-12-20T08:42:33;1.40;;;0.65;;
40955;SDS011;26687;48.254;11.454;2023-12-20T08:45:33;1.25;;;0.65;;
40955;SDS011;26687;48.254;11.454;2023-12-20T08:48:33;0.85;;;0.80;;
40955;SDS011;26687;48.254;11.454;2023-12-20T08:51:34;0.80;;;0.80;;
40955;SDS011;26687;48.254;11.454;2023-12-20T08:54:34;1.05;;;0.80;;
40955;SDS011;26687;48.254;11.454;2023-12-20T08:57:34;0.70;;;0.70;;
40955;SDS011;26687;48.254;11.454;2023-12-20T09:00:34;1.50;;;0.70;;
40955;SDS011;26687;48.254;11.454;2023-12-20T09:03:34;0.70;;;0.70;;
40955;SDS011;26687;48.254;11.454;2023-12-20T09:06:35;0.80;;;0.80;;
40955;SDS011;26687;48.254;11.454;2023-12-20T09:09:35;0.90;;;0.80;;
40955;SDS011;26687;48.254;11.454;2023-12-20T09:12:35;0.93;;;0.90;;
40955;SDS011;26687;48.254;11.454;2023-12-20T09:15:38;0.80;;;0.80;;
40955;SDS011;26687;48.254;11.454;2023-12-20T09:18:38;0.95;;;0.90;;
40955;SDS011;26687;48.254;11.454;2023-12-20T09:21:38;0.97;;;0.97;;
40955;SDS011;26687;48.254;11.454;2023-12-20T09:24:38;0.90;;;0.90;;
40955;SDS011;26687;48.254;11.454;2023-12-20T09:27:38;1.10;;;1.00;;
40955;SDS011;26687;48.254;11.454;2023-12-20T09:30:39;1.50;;;0.90;;
40955;SDS011;26687;48.254;11.454;2023-12-20T09:33:40;1.38;;;1.27;;
40955;SDS011;26687;48.254;11.454;2023-12-20T09:36:40;2.17;;;0.90;;
40955;SDS011;26687;48.254;11.454;2023-12-20T09:39:46;1.17;;;1.08;;
40955;SDS011;26687;48.254;11.454;2023-12-20T09:42:58;1.15;;;1.00;;
40955;SDS011;26687;48.254;11.454;2023-12-20T09:46:02;1.25;;;1.15;;
40955;SDS011;26687;48.254;11.454;2023-12-20T09:49:04;1.55;;;1.45;;
40955;SDS011;26687;48.254;11.454;2023-12-20T09:52:05;0.80;;;0.80;;
40955;SDS011;26687;48.254;11.454;2023-12-20T09:55:07;1.08;;;1.00;;
40955;SDS011;26687;48.254;11.454;2023-12-20T09:58:08;1.30;;;1.20;;
40955;SDS011;26687;48.254;11.454;2023-12-20T10:01:08;1.13;;;1.02;;
40955;SDS011;26687;48.254;11.454;2023-12-20T10:04:09;0.90;;;0.90;;
40955;SDS011;26687;48.254;11.454;2023-12-20T10:07:12;1.30;;;1.02;;
40955;SDS011;26687;48.254;11.454;2023-12-20T10:10:13;1.02;;;0.93;;
40955;SDS011;26687;48.254;11.454;2023-12-20T10:13:14;1.23;;;1.13;;
40955;SDS011;26687;48.254;11.454;2023-12-20T10:16:14;1.20;;;1.10;;
40955;SDS011;26687;48.254;11.454;2023-12-20T10:19:16;1.80;;;1.10;;
40955;SDS011;26687;48.254;11.454;2023-12-20T10:22:16;1.20;;;1.00;;
40955;SDS011;26687;48.254;11.454;2023-12-20T10:25:17;1.27;;;1.00;;
40955;SDS011;26687;48.254;11.454;2023-12-20T10:28:17;1.02;;;0.93;;
40955;SDS011;26687;48.254;11.454;2023-12-20T10:31:31;1.30;;;1.20;;
40955;SDS011;26687;48.254;11.454;2023-12-20T10:34:32;1.20;;;1.10;;
40955;SDS011;26687;48.254;11.454;2023-12-20T10:37:35;2.03;;;1.00;;
40955;SDS011;26687;48.254;11.454;2023-12-20T10:40:35;1.23;;;1.10;;
40955;SDS011;26687;48.254;11.454;2023-12-20T10:43:39;1.48;;;1.30;;
40955;SDS011;26687;48.254;11.454;2023-12-20T10:46:39;1.23;;;1.10;;
40955;SDS011;26687;48.254;11.454;2023-12-20T10:49:40;1.60;;;0.97;;
40955;SDS011;26687;48.254;11.454;2023-12-20T10:52:40;0.80;;;0.80;;
40955;SDS011;26687;48.254;11.454;2023-12-20T10:55:41;1.08;;;0.98;;
40955;SDS011;26687;48.254;11.454;2023-12-20T10:58:42;1.20;;;1.10;;
40955;SDS011;26687;48.254;11.454;2023-12-20T11:01:43;1.05;;;0.95;;
40955;SDS011;26687;48.254;11.454;2023-12-20T11:07:50;1.25;;;1.13;;
40955;SDS011;26687;48.254;11.454;2023-12-20T11:10:57;0.85;;;0.80;;
40955;SDS011;26687;48.254;11.454;2023-12-20T11:14:00;1.00;;;0.90;;
40955;SDS011;26687;48.254;11.454;2023-12-20T11:17:08;1.17;;;1.05;;
40955;SDS011;26687;48.254;11.454;2023-12-20T11:20:09;1.48;;;1.30;;
40955;SDS011;26687;48.254;11.454;2023-12-20T11:23:11;1.37;;;1.10;;
40955;SDS011;26687;48.254;11.454;2023-12-20T11:26:15;1.02;;;0.95;;
40955;SDS011;26687;48.254;11.454;2023-12-20T11:29:35;1.48;;;1.08;;
40955;SDS011;26687;48.254;11.454;2023-12-20T11:32:35;0.80;;;0.80;;
40955;SDS011;26687;48.254;11.454;2023-12-20T11:35:36;1.10;;;1.00;;
40955;SDS011;26687;48.254;11.454;2023-12-20T11:38:37;1.00;;;0.80;;
40955;SDS011;26687;48.254;11.454;2023-12-20T11:41:37;1.52;;;1.02;;
40955;SDS011;26687;48.254;11.454;2023-12-20T11:44:37;0.80;;;0.80;;
40955;SDS011;26687;48.254;11.454;2023-12-20T11:47:38;0.90;;;0.80;;
40955;SDS011;26687;48.254;11.454;2023-12-20T11:50:38;1.00;;;0.90;;
40955;SDS011;26687;48.254;11.454;2023-12-20T11:53:40;1.00;;;0.90;;
40955;SDS011;26687;48.254;11.454;2023-12-20T11:56:40;0.70;;;0.70;;
40955;SDS011;26687;48.254;11.454;2023-12-20T11:59:40;1.70;;;0.82;;
40955;SDS011;26687;48.254;11.454;2023-12-20T12:02:42;0.73;;;0.73;;
40955;SDS011;26687;48.254;11.454;2023-12-20T12:05:42;0.80;;;0.70;;
40955;SDS011;26687;48.254;11.454;2023-12-20T12:08:42;1.02;;;0.93;;
40955;SDS011;26687;48.254;11.454;2023-12-20T12:11:43;1.85;;;0.93;;
40955;SDS011;26687;48.254;11.454;2023-12-20T12:14:44;0.95;;;0.90;;
40955;SDS011;26687;48.254;11.454;2023-12-20T12:17:44;1.00;;;0.90;;
40955;SDS011;26687;48.254;11.454;2023-12-20T12:20:44;0.88;;;0.80;;
40955;SDS011;26687;48.254;11.454;2023-12-20T12:23:44;0.98;;;0.95;;
40955;SDS011;26687;48.254;11.454;2023-12-20T12:26:49;0.90;;;0.90;;
40955;SDS011;26687;48.254;11.454;2023-12-20T12:30:02;1.00;;;0.73;;
40955;SDS011;26687;48.254;11.454;2023-12-20T12:33:03;0.82;;;0.70;;
40955;SDS011;26687;48.254;11.454;2023-12-20T12:36:04;1.02;;;0.90;;
40955;SDS011;26687;48.254;11.454;2023-12-20T12:39:07;1.15;;;1.02;;
40955;SDS011;26687;48.254;11.454;2023-12-20T12:42:07;1.37;;;0.97;;
40955;SDS011;26687;48.254;11.454;2023-12-20T12:45:07;0.60;;;0.60;;
40955;SDS011;26687;48.254;11.454;2023-12-20T12:48:07;1.35;;;0.77;;
40955;SDS011;26687;48.254;11.454;2023-12-20T12:51:07;1.20;;;0.73;;
40955;SDS011;26687;48.254;11.454;2023-12-20T12:54:12;0.68;;;0.68;;
40955;SDS011;26687;48.254;11.454;2023-12-20T12:57:13;0.80;;;0.80;;
40955;SDS011;26687;48.254;11.454;2023-12-20T13:00:14;1.13;;;0.90;;
40955;SDS011;26687;48.254;11.454;2023-12-20T13:03:14;2.15;;;1.60;;
40955;SDS011;26687;48.254;11.454;2023-12-20T13:06:14;1.85;;;0.90;;
40955;SDS011;26687;48.254;11.454;2023-12-20T13:09:14;2.07;;;1.63;;
40955;SDS011;26687;48.254;11.454;2023-12-20T13:12:15;1.33;;;1.05;;
40955;SDS011;26687;48.254;11.454;2023-12-20T13:15:15;1.80;;;0.83;;
40955;SDS011;26687;48.254;11.454;2023-12-20T13:18:16;1.60;;;0.90;;
40955;SDS011;26687;48.254;11.454;2023-12-20T13:21:18;1.35;;;0.93;;
40955;SDS011;26687;48.254;11.454;2023-12-20T13:24:18;1.85;;;1.15;;
40955;SDS011;26687;48.254;11.454;2023-12-20T13:27:19;3.42;;;1.40;;
40955;SDS011;26687;48.254;11.454;2023-12-20T13:30:19;1.85;;;1.05;;
40955;SDS011;26687;48.254;11.454;2023-12-20T13:33:19;1.40;;;0.97;;
40955;SDS011;26687;48.254;11.454;2023-12-20T13:36:19;1.30;;;1.10;;
40955;SDS011;26687;48.254;11.454;2023-12-20T13:39:20;2.53;;;1.05;;
40955;SDS011;26687;48.254;11.454;2023-12-20T13:42:21;1.90;;;1.33;;
40955;SDS011;26687;48.254;11.454;2023-12-20T13:45:21;2.77;;;1.50;;
40955;SDS011;26687;48.254;11.454;2023-12-20T13:48:22;3.65;;;2.40;;
40955;SDS011;26687;48.254;11.454;2023-12-20T13:51:22;5.45;;;3.60;;
40955;SDS011;26687;48.254;11.454;2023-12-20T13:54:23;3.80;;;2.00;;
40955;SDS011;26687;48.254;11.454;2023-12-20T13:57:23;2.55;;;1.58;;
40955;SDS011;26687;48.254;11.454;2023-12-20T14:00:23;2.33;;;1.27;;
40955;SDS011;26687;48.254;11.454;2023-12-20T14:03:23;3.47;;;1.10;;
40955;SDS011;26687;48.254;11.454;2023-12-20T14:06:23;2.87;;;1.30;;
40955;SDS011;26687;48.254;11.454;2023-12-20T14:09:24;2.30;;;0.93;;
40955;SDS011;26687;48.254;11.454;2023-12-20T14:12:24;2.60;;;1.10;;
40955;SDS011;26687;48.254;11.454;2023-12-20T14:15:24;3.40;;;1.10;;
40955;SDS011;26687;48.254;11.454;2023-12-20T14:18:25;1.90;;;0.80;;
40955;SDS011;26687;48.254;11.454;2023-12-20T14:21:25;3.17;;;1.20;;
40955;SDS011;26687;48.254;11.454;2023-12-20T14:24:25;3.05;;;0.90;;
40955;SDS011;26687;48.254;11.454;2023-12-20T14:27:26;4.03;;;0.90;;
40955;SDS011;26687;48.254;11.454;2023-12-20T14:30:27;2.03;;;0.90;;
40955;SDS011;26687;48.254;11.454;2023-12-20T14:33:28;1.45;;;0.80;;
40955;SDS011;26687;48.254;11.454;2023-12-20T14:36:28;2.80;;;1.00;;
40955;SDS011;26687;48.254;11.454;2023-12-20T14:39:30;1.42;;;0.88;;
40955;SDS011;26687;48.254;11.454;2023-12-20T14:42:30;2.35;;;0.80;;
40955;SDS011;26687;48.254;11.454;2023-12-20T14:45:32;0.85;;;0.80;;
40955;SDS011;26687;48.254;11.454;2023-12-20T14:48:32;1.90;;;0.90;;
40955;SDS011;26687;48.254;11.454;2023-12-20T14:51:33;2.80;;;1.00;;
40955;SDS011;26687;48.254;11.454;2023-12-20T14:54:33;1.20;;;0.70;;
40955;SDS011;26687;48.254;11.454;2023-12-20T14:57:33;2.60;;;1.50;;
40955;SDS011;26687;48.254;11.454;2023-12-20T15:00:33;2.23;;;1.17;;
40955;SDS011;26687;48.254;11.454;2023-12-20T15:03:34;3.03;;;0.80;;
40955;SDS011;26687;48.254;11.454;2023-12-20T15:06:34;1.55;;;0.93;;
40955;SDS011;26687;48.254;11.454;2023-12-20T15:09:34;1.27;;;1.00;;
40955;SDS011;26687;48.254;11.454;2023-12-20T15:12:35;3.90;;;1.50;;
40955;SDS011;26687;48.254;11.454;2023-12-20T15:15:35;3.63;;;1.25;;
40955;SDS011;26687;48.254;11.454;2023-12-20T15:18:35;1.77;;;1.00;;
40955;SDS011;26687;48.254;11.454;2023-12-20T15:21:35;2.80;;;1.50;;
40955;SDS011;26687;48.254;11.454;2023-12-20T15:24:40;2.72;;;1.67;;
40955;SDS011;26687;48.254;11.454;2023-12-20T15:27:42;3.25;;;1.70;;
40955;SDS011;26687;48.254;11.454;2023-12-20T15:30:43;3.05;;;1.33;;
40955;SDS011;26687;48.254;11.454;2023-12-20T15:33:43;1.83;;;1.20;;
40955;SDS011;26687;48.254;11.454;2023-12-20T15:36:43;2.53;;;0.80;;
40955;SDS011;26687;48.254;11.454;2023-12-20T15:39:44;2.15;;;1.05;;
40955;SDS011;26687;48.254;11.454;2023-12-20T15:42:44;1.27;;;0.70;;
40955;SDS011;26687;48.254;11.454;2023-12-20T15:45:44;2.58;;;1.35;;
40955;SDS011;26687;48.254;11.454;2023-12-20T15:48:46;2.85;;;1.67;;
40955;SDS011;26687;48.254;11.454;2023-12-20T15:51:46;2.55;;;0.95;;
40955;SDS011;26687;48.254;11.454;2023-12-20T15:54:46;1.77;;;1.10;;
40955;SDS011;26687;48.254;11.454;2023-12-20T15:57:47;1.60;;;0.90;;
40955;SDS011;26687;48.254;11.454;2023-12-20T16:00:47;1.45;;;1.02;;
40955;SDS011;26687;48.254;11.454;2023-12-20T16:03:49;2.72;;;1.10;;
40955;SDS011;26687;48.254;11.454;2023-12-20T16:06:49;2.22;;;1.20;;
40955;SDS011;26687;48.254;11.454;2023-12-20T16:09:49;2.63;;;1.40;;
40955;SDS011;26687;48.254;11.454;2023-12-20T16:12:49;2.23;;;1.40;;
40955;SDS011;26687;48.254;11.454;2023-12-20T16:15:49;3.15;;;1.48;;
40955;SDS011;26687;48.254;11.454;2023-12-20T16:18:49;4.20;;;1.83;;
40955;SDS011;26687;48.254;11.454;2023-12-20T16:21:50;3.65;;;1.52;;
40955;SDS011;26687;48.254;11.454;2023-12-20T16:24:50;2.13;;;1.43;;
40955;SDS011;26687;48.254;11.454;2023-12-20T16:27:50;1.73;;;1.13;;
40955;SDS011;26687;48.254;11.454;2023-12-20T16:30:50;3.80;;;1.30;;
40955;SDS011;26687;48.254;11.454;2023-12-20T16:33:51;1.90;;;1.08;;
40955;SDS011;26687;48.254;11.454;2023-12-20T16:36:52;2.20;;;1.33;;
40955;SDS011;26687;48.254;11.454;2023-12-20T16:39:52;2.25;;;1.05;;
40955;SDS011;26687;48.254;11.454;2023-12-20T16:42:53;3.17;;;1.40;;
40955;SDS011;26687;48.254;11.454;2023-12-20T16:45:54;3.17;;;1.08;;
40955;SDS011;26687;48.254;11.454;2023-12-20T16:48:54;3.50;;;1.20;;
40955;SDS011;26687;48.254;11.454;2023-12-20T16:51:55;3.78;;;1.30;;
40955;SDS011;26687;48.254;11.454;2023-12-20T16:54:55;1.98;;;1.00;;
40955;SDS011;26687;48.254;11.454;2023-12-20T16:57:55;3.35;;;0.90;;
40955;SDS011;26687;48.254;11.454;2023-12-20T17:00:56;1.70;;;1.00;;
40955;SDS011;26687;48.254;11.454;2023-12-20T17:03:56;1.53;;;0.90;;
40955;SDS011;26687;48.254;11.454;2023-12-20T17:06:56;1.98;;;0.90;;
40955;SDS011;26687;48.254;11.454;2023-12-20T17:09:56;1.65;;;1.02;;
40955;SDS011;26687;48.254;11.454;2023-12-20T17:12:56;1.65;;;0.70;;
40955;SDS011;26687;48.254;11.454;2023-12-20T17:15:57;2.92;;;0.90;;
40955;SDS011;26687;48.254;11.454;2023-12-20T17:18:57;2.15;;;1.08;;
40955;SDS011;26687;48.254;11.454;2023-12-20T17:21:57;5.60;;;1.10;;
40955;SDS011;26687;48.254;11.454;2023-12-20T17:24:57;3.10;;;1.10;;
40955;SDS011;26687;48.254;11.454;2023-12-20T17:27:57;1.95;;;0.82;;
40955;SDS011;26687;48.254;11.454;2023-12-20T17:30:58;1.52;;;1.02;;
40955;SDS011;26687;48.254;11.454;2023-12-20T17:33:59;2.65;;;1.15;;
40955;SDS011;26687;48.254;11.454;2023-12-20T17:36:59;2.30;;;1.00;;
40955;SDS011;26687;48.254;11.454;2023-12-20T17:40:00;2.55;;;0.95;;
40955;SDS011;26687;48.254;11.454;2023-12-20T17:43:00;1.60;;;1.00;;
40955;SDS011;26687;48.254;11.454;2023-12-20T17:46:00;2.17;;;1.00;;
40955;SDS011;26687;48.254;11.454;2023-12-20T17:49:00;3.88;;;1.13;;
40955;SDS011;26687;48.254;11.454;2023-12-20T17:52:01;2.22;;;1.10;;
40955;SDS011;26687;48.254;11.454;2023-12-20T17:55:02;2.28;;;1.15;;